Time;durP1;ratioP1;P1;durP2;ratioP2;P2;SDS_P1;SDS_P2;PMS_P1;PMS_P2;Temp;Humidity;BMP_temperature;BMP_pressure;BME280_temperature;BME280_humidity;BME280_pressure;Samples;Min_cycle;Max_cycle;Signal;HPM_P1;HPM_P2
2023/12/01 00:01:21;;;;;;;;;;;1.40;99.90;;;;;;7334605;19;111443;-86
2023/12/01 00:03:48;;;;;;;;;;;1.30;99.90;;;;;;7366032;19;109374;-86
2023/12/01 00:06:16;;;;;;;;;;;1.30;99.90;;;;;;7365180;19;107895;-86
2023/12/01 00:08:43;;;;;;;;;;;1.40;99.90;;;;;;7370876;19;110048;-86
2023/12/01 00:11:10;;;;;;;;;;;1.40;99.90;;;;;;7377472;19;109085;-86
2023/12/01 00:13:37;;;;;;;;;;;1.40;99.90;;;;;;7371446;19;109784;-85
2023/12/01 00:16:05;;;;;;;;;;;1.40;99.90;;;;;;7343456;19;109448;-86
2023/12/01 00:18:32;;;;;;;;;;;1.40;99.90;;;;;;7334951;19;109566;-86
2023/12/01 00:20:59;;;;;;;;;;;1.40;99.90;;;;;;7341904;19;109107;-86
2023/12/01 00:23:29;;;;;;;;;;;1.40;99.90;;;;;;7338792;19;110854;-86
2023/12/01 00:25:56;;;;;;;;;;;1.40;99.90;;;;;;7336591;19;108726;-85
2023/12/01 00:28:24;;;;;;;;;;;1.40;99.90;;;;;;7333853;19;114018;-86
2023/12/01 00:30:51;;;;;;;;;;;1.30;99.90;;;;;;7325599;19;110989;-85
2023/12/01 00:33:18;;;;;;;;;;;1.30;99.90;;;;;;7332848;19;108867;-85
2023/12/01 00:35:46;;;;;;;;;;;1.30;99.90;;;;;;7333046;19;110323;-85
2023/12/01 00:38:13;;;;;;;;;;;1.30;99.90;;;;;;7329310;19;110014;-86
2023/12/01 00:40:40;;;;;;;;;;;1.30;99.90;;;;;;7330811;19;109800;-86
2023/12/01 00:43:09;;;;;;;;;;;1.30;99.90;;;;;;7334739;19;111216;-85
2023/12/01 00:45:36;;;;;;;;;;;1.20;99.90;;;;;;7335440;19;111353;-85
2023/12/01 00:48:04;;;;;;;;;;;1.20;99.90;;;;;;7337521;19;109280;-87
2023/12/01 00:50:31;;;;;;;;;;;1.20;99.90;;;;;;7338972;19;110000;-86
2023/12/01 00:52:59;;;;;;;;;;;1.20;99.90;;;;;;7337662;19;111298;-85
2023/12/01 00:55:27;;;;;;;;;;;1.20;99.90;;;;;;7335148;19;111614;-85
2023/12/01 00:57:55;;;;;;;;;;;1.20;99.90;;;;;;7337962;19;108701;-85
2023/12/01 01:00:22;;;;;;;;;;;1.20;99.90;;;;;;7337893;19;109159;-85
2023/12/01 01:02:50;;;;;;;;;;;1.20;99.90;;;;;;7339984;19;110836;-85
2023/12/01 01:05:17;;;;;;;;;;;1.20;99.90;;;;;;7338522;19;109864;-85
2023/12/01 01:07:45;;;;;;;;;;;1.30;99.90;;;;;;7339553;19;109099;-86
2023/12/01 01:10:12;;;;;;;;;;;1.30;99.90;;;;;;7338032;19;113229;-85
2023/12/01 01:12:39;;;;;;;;;;;1.30;99.90;;;;;;7336919;19;108324;-85
2023/12/01 01:15:07;;;;;;;;;;;1.30;99.90;;;;;;7339267;19;109697;-85
2023/12/01 01:17:34;;;;;;;;;;;1.30;99.90;;;;;;7339550;19;109336;-85
2023/12/01 01:20:01;;;;;;;;;;;1.30;99.90;;;;;;7337807;19;112690;-86
2023/12/01 01:22:28;;;;;;;;;;;1.30;99.90;;;;;;7337636;19;109984;-85
2023/12/01 01:24:55;;;;;;;;;;;1.40;99.90;;;;;;7339149;19;108680;-85
2023/12/01 01:27:22;;;;;;;;;;;1.40;99.90;;;;;;7335587;19;111976;-85
2023/12/01 01:29:49;;;;;;;;;;;1.40;99.90;;;;;;7338000;19;111302;-85
2023/12/01 01:32:17;;;;;;;;;;;1.40;99.90;;;;;;7337118;19;108902;-84
2023/12/01 01:34:44;;;;;;;;;;;1.40;99.90;;;;;;7337367;19;109381;-85
2023/12/01 01:37:11;;;;;;;;;;;1.40;99.90;;;;;;7340619;19;110246;-85
2023/12/01 01:39:38;;;;;;;;;;;1.40;99.90;;;;;;7338185;19;111512;-87
2023/12/01 01:42:06;;;;;;;;;;;1.40;99.90;;;;;;7337579;19;110520;-84
2023/12/01 01:44:33;;;;;;;;;;;1.40;99.90;;;;;;7332863;19;109735;-84
2023/12/01 01:47:01;;;;;;;;;;;1.30;99.90;;;;;;7335798;19;109378;-85
2023/12/01 01:49:28;;;;;;;;;;;1.40;99.90;;;;;;7339197;19;111206;-85
2023/12/01 01:51:56;;;;;;;;;;;1.40;99.90;;;;;;7336651;19;108834;-85
2023/12/01 01:54:24;;;;;;;;;;;1.40;99.90;;;;;;7338580;19;109946;-85
2023/12/01 01:56:55;;;;;;;;;;;1.40;99.90;;;;;;7335468;19;110469;-85
2023/12/01 01:59:22;;;;;;;;;;;1.50;99.90;;;;;;7338727;19;110710;-85
2023/12/01 02:01:50;;;;;;;;;;;1.40;99.90;;;;;;7327711;19;110697;-85
2023/12/01 02:04:17;;;;;;;;;;;1.40;99.90;;;;;;7332926;19;115555;-85
2023/12/01 02:06:47;;;;;;;;;;;1.40;99.90;;;;;;7335515;19;111335;-84
2023/12/01 02:09:15;;;;;;;;;;;1.50;99.90;;;;;;7339493;19;109469;-85
2023/12/01 02:11:42;;;;;;;;;;;1.50;99.90;;;;;;7338220;19;108840;-85
2023/12/01 02:14:10;;;;;;;;;;;1.50;99.90;;;;;;7340015;19;109344;-85
2023/12/01 02:16:45;;;;;;;;;;;1.60;99.90;;;;;;7329861;19;111712;-86
2023/12/01 02:19:13;;;;;;;;;;;1.60;99.90;;;;;;7336126;19;108508;-85
2023/12/01 02:21:45;;;;;;;;;;;1.60;99.90;;;;;;7341965;19;109664;-85
2023/12/01 02:24:13;;;;;;;;;;;1.60;99.90;;;;;;7336635;19;108721;-85
2023/12/01 02:26:40;;;;;;;;;;;1.60;99.90;;;;;;7331923;19;109595;-85
2023/12/01 02:29:07;;;;;;;;;;;1.60;99.90;;;;;;7337187;19;111847;-84
2023/12/01 02:31:35;;;;;;;;;;;1.60;99.90;;;;;;7336102;19;110078;-85
2023/12/01 02:34:03;;;;;;;;;;;1.60;99.90;;;;;;7333282;19;110054;-85
2023/12/01 02:36:31;;;;;;;;;;;1.70;99.90;;;;;;7327110;19;110830;-85
2023/12/01 02:38:58;;;;;;;;;;;1.70;99.90;;;;;;7332101;19;108919;-85
2023/12/01 02:41:25;;;;;;;;;;;1.70;99.90;;;;;;7338389;19;108740;-85
2023/12/01 02:43:53;;;;;;;;;;;1.70;99.90;;;;;;7344612;19;110017;-85
2023/12/01 02:46:22;;;;;;;;;;;1.70;99.90;;;;;;7333928;19;109585;-85
2023/12/01 02:48:50;;;;;;;;;;;1.60;99.90;;;;;;7333151;19;111474;-85
2023/12/01 02:51:18;;;;;;;;;;;1.60;99.90;;;;;;7338798;19;108801;-85
2023/12/01 02:53:46;;;;;;;;;;;1.60;99.90;;;;;;7337712;19;109252;-85
2023/12/01 02:56:13;;;;;;;;;;;1.60;99.90;;;;;;7330149;19;112866;-84
2023/12/01 02:58:40;;;;;;;;;;;1.70;99.90;;;;;;7336614;19;109393;-84
2023/12/01 03:01:08;;;;;;;;;;;1.70;99.90;;;;;;7340860;19;109666;-84
2023/12/01 03:03:35;;;;;;;;;;;1.70;99.90;;;;;;7332093;19;110379;-84
2023/12/01 03:06:02;;;;;;;;;;;1.70;99.90;;;;;;7344282;19;108757;-84
2023/12/01 03:08:29;;;;;;;;;;;1.70;99.90;;;;;;7333287;19;109991;-85
2023/12/01 03:10:57;;;;;;;;;;;1.70;99.90;;;;;;7336389;19;108599;-84
2023/12/01 03:13:24;;;;;;;;;;;1.70;99.90;;;;;;7338148;19;110324;-85
2023/12/01 03:15:51;;;;;;;;;;;1.70;99.90;;;;;;7335733;19;110256;-85
2023/12/01 03:18:20;;;;;;;;;;;1.60;99.90;;;;;;7338488;19;109537;-85
2023/12/01 03:20:50;;;;;;;;;;;1.70;99.90;;;;;;7339047;19;110767;-85
2023/12/01 03:23:17;;;;;;;;;;;1.60;99.90;;;;;;7371760;19;110434;-85
2023/12/01 03:25:44;;;;;;;;;;;1.60;99.90;;;;;;7382150;19;107872;-85
2023/12/01 03:28:11;;;;;;;;;;;1.70;99.90;;;;;;7377599;19;109471;-85
2023/12/01 03:30:38;;;;;;;;;;;1.60;99.90;;;;;;7373059;19;108307;-84
2023/12/01 03:33:05;;;;;;;;;;;1.60;99.90;;;;;;7374017;19;108380;-86
2023/12/01 03:35:32;;;;;;;;;;;1.60;99.90;;;;;;7362100;19;110397;-85
2023/12/01 03:37:59;;;;;;;;;;;1.60;99.90;;;;;;7336885;19;109535;-85
2023/12/01 03:40:27;;;;;;;;;;;1.60;99.90;;;;;;7338813;19;109177;-85
2023/12/01 03:42:54;;;;;;;;;;;1.60;99.90;;;;;;7337102;19;110172;-84
2023/12/01 03:45:22;;;;;;;;;;;1.70;99.90;;;;;;7325967;19;108993;-85
2023/12/01 03:47:50;;;;;;;;;;;1.70;99.90;;;;;;7336704;19;109109;-85
2023/12/01 03:50:18;;;;;;;;;;;1.80;99.90;;;;;;7337656;19;109031;-84
2023/12/01 03:52:48;;;;;;;;;;;1.80;99.90;;;;;;7337619;19;109052;-85
2023/12/01 03:55:15;;;;;;;;;;;1.70;99.90;;;;;;7330415;19;110186;-85
2023/12/01 03:57:43;;;;;;;;;;;1.70;99.90;;;;;;7337585;19;108613;-85
2023/12/01 04:00:13;;;;;;;;;;;1.60;99.90;;;;;;7335048;19;109329;-85
2023/12/01 04:02:42;;;;;;;;;;;1.60;99.90;;;;;;7334705;19;111380;-84
2023/12/01 04:05:22;;;;;;;;;;;1.70;99.90;;;;;;7333784;19;110273;-85
2023/12/01 04:07:51;;;;;;;;;;;1.80;99.90;;;;;;7333161;19;108583;-85
2023/12/01 04:10:21;;;;;;;;;;;1.90;99.90;;;;;;7329088;19;110390;-86
2023/12/01 04:12:49;;;;;;;;;;;1.90;99.90;;;;;;7332082;19;109190;-84
2023/12/01 04:15:17;;;;;;;;;;;1.80;99.90;;;;;;7330195;19;111076;-84
2023/12/01 04:17:45;;;;;;;;;;;1.80;99.90;;;;;;7333761;19;108687;-84
2023/12/01 04:20:25;;;;;;;;;;;1.70;99.90;;;;;;7331584;19;109303;-85
2023/12/01 04:22:54;;;;;;;;;;;1.60;99.90;;;;;;7332427;19;109567;-84
2023/12/01 04:25:22;;;;;;;;;;;1.60;99.90;;;;;;7332496;19;109525;-85
2023/12/01 04:27:50;;;;;;;;;;;1.50;99.90;;;;;;7333806;19;112016;-85
2023/12/01 04:30:17;;;;;;;;;;;1.70;99.90;;;;;;7332548;19;111474;-84
2023/12/01 04:32:45;;;;;;;;;;;1.70;99.90;;;;;;7341288;19;108779;-84
2023/12/01 04:35:13;;;;;;;;;;;1.70;99.90;;;;;;7332710;19;112593;-85
2023/12/01 04:37:41;;;;;;;;;;;1.80;99.90;;;;;;7336787;19;108387;-85
2023/12/01 04:40:14;;;;;;;;;;;1.80;99.90;;;;;;7326862;19;109436;-85
2023/12/01 04:42:51;;;;;;;;;;;1.90;99.90;;;;;;7328438;19;110214;-86
2023/12/01 04:45:19;;;;;;;;;;;1.80;99.90;;;;;;7329795;19;109187;-85
2023/12/01 04:47:50;;;;;;;;;;;1.90;99.90;;;;;;7335476;19;108946;-85
2023/12/01 04:50:19;;;;;;;;;;;1.80;99.90;;;;;;7324061;19;113665;-85
2023/12/01 04:52:53;;;;;;;;;;;1.80;99.90;;;;;;7325365;19;108837;-85
2023/12/01 04:55:23;;;;;;;;;;;1.80;99.90;;;;;;7335487;19;109585;-85
2023/12/01 04:57:50;;;;;;;;;;;1.90;99.90;;;;;;7326282;19;110114;-85
2023/12/01 05:00:22;;;;;;;;;;;1.90;99.90;;;;;;7326396;19;109734;-85
2023/12/01 05:02:57;;;;;;;;;;;2.00;99.90;;;;;;7332366;19;111156;-84
2023/12/01 05:05:25;;;;;;;;;;;2.00;99.90;;;;;;7324560;19;109670;-85
2023/12/01 05:07:56;;;;;;;;;;;2.00;99.90;;;;;;7332367;19;109598;-84
2023/12/01 05:10:23;;;;;;;;;;;2.00;99.90;;;;;;7329621;19;113215;-83
2023/12/01 05:12:52;;;;;;;;;;;2.10;99.90;;;;;;7330625;19;111397;-85
2023/12/01 05:15:20;;;;;;;;;;;2.10;99.90;;;;;;7334917;19;109448;-84
2023/12/01 05:17:48;;;;;;;;;;;2.10;99.90;;;;;;7330180;19;111500;-85
2023/12/01 05:20:16;;;;;;;;;;;2.10;99.90;;;;;;7331764;19;109012;-85
2023/12/01 05:22:47;;;;;;;;;;;2.00;99.90;;;;;;7333285;19;110556;-84
2023/12/01 05:25:15;;;;;;;;;;;2.00;99.90;;;;;;7324035;19;109173;-84
2023/12/01 05:27:44;;;;;;;;;;;1.90;99.90;;;;;;7326293;19;109771;-85
2023/12/01 05:30:12;;;;;;;;;;;1.80;99.90;;;;;;7326722;19;113451;-84
2023/12/01 05:32:40;;;;;;;;;;;1.70;99.90;;;;;;7335645;19;110084;-85
2023/12/01 05:35:11;;;;;;;;;;;1.70;99.90;;;;;;7340042;19;113362;-85
2023/12/01 05:37:42;;;;;;;;;;;1.60;99.90;;;;;;7344602;19;111167;-85
2023/12/01 05:40:15;;;;;;;;;;;1.60;99.90;;;;;;7335563;19;109687;-85
2023/12/01 05:42:43;;;;;;;;;;;1.60;99.90;;;;;;7335509;19;114355;-85
2023/12/01 05:45:11;;;;;;;;;;;1.60;99.90;;;;;;7336719;19;108935;-85
2023/12/01 05:47:42;;;;;;;;;;;1.60;99.90;;;;;;7337284;19;110547;-84
2023/12/01 05:50:12;;;;;;;;;;;1.60;99.90;;;;;;7334580;19;110028;-84
2023/12/01 05:52:46;;;;;;;;;;;1.60;99.90;;;;;;7337202;19;108478;-84
2023/12/01 05:55:16;;;;;;;;;;;1.50;99.90;;;;;;7336617;19;111911;-84
2023/12/01 05:57:48;;;;;;;;;;;1.50;99.90;;;;;;7336743;19;110478;-84
2023/12/01 06:00:17;;;;;;;;;;;1.50;99.90;;;;;;7341697;19;108888;-84
2023/12/01 06:02:44;;;;;;;;;;;1.50;99.90;;;;;;7331002;19;110988;-85
2023/12/01 06:05:15;;;;;;;;;;;1.50;99.90;;;;;;7334959;19;110291;-84
2023/12/01 06:07:43;;;;;;;;;;;1.50;99.90;;;;;;7337531;19;110180;-84
2023/12/01 06:10:11;;;;;;;;;;;1.50;99.90;;;;;;7340416;19;110165;-84
2023/12/01 06:12:39;;;;;;;;;;;1.50;99.90;;;;;;7339225;19;108821;-84
2023/12/01 06:15:07;;;;;;;;;;;1.50;99.90;;;;;;7339997;19;109335;-85
2023/12/01 06:17:34;;;;;;;;;;;1.60;99.90;;;;;;7334821;19;115146;-84
2023/12/01 06:20:02;;;;;;;;;;;1.60;99.90;;;;;;7332523;19;108454;-85
2023/12/01 06:22:29;;;;;;;;;;;1.60;99.90;;;;;;7342817;19;109299;-83
2023/12/01 06:24:56;;;;;;;;;;;1.60;99.90;;;;;;7341395;19;109016;-83
2023/12/01 06:27:23;;;;;;;;;;;1.60;99.90;;;;;;7338922;19;109097;-84
2023/12/01 06:29:51;;;;;;;;;;;1.60;99.90;;;;;;7336159;19;113328;-84
2023/12/01 06:32:19;;;;;;;;;;;1.50;99.90;;;;;;7335490;19;109160;-85
2023/12/01 06:34:50;;;;;;;;;;;1.50;99.90;;;;;;7332550;19;111529;-85
2023/12/01 06:37:19;;;;;;;;;;;1.60;99.90;;;;;;7336144;19;110538;-84
2023/12/01 06:39:46;;;;;;;;;;;1.60;99.90;;;;;;7368086;19;109499;-85
2023/12/01 06:42:14;;;;;;;;;;;1.70;99.90;;;;;;7376633;19;108819;-85
2023/12/01 06:44:41;;;;;;;;;;;1.60;99.90;;;;;;7380631;19;109643;-86
2023/12/01 06:47:09;;;;;;;;;;;1.70;99.90;;;;;;7374184;19;112744;-85
2023/12/01 06:49:36;;;;;;;;;;;1.60;99.90;;;;;;7373383;19;109797;-85
2023/12/01 06:52:04;;;;;;;;;;;1.60;99.90;;;;;;7359290;19;108719;-85
2023/12/01 06:54:31;;;;;;;;;;;1.60;99.90;;;;;;7339015;19;109468;-85
2023/12/01 06:56:58;;;;;;;;;;;1.60;99.90;;;;;;7340325;19;110698;-85
2023/12/01 06:59:25;;;;;;;;;;;1.60;99.90;;;;;;7324257;19;109520;-86
2023/12/01 07:01:52;;;;;;;;;;;1.60;99.90;;;;;;7335264;19;112816;-86
2023/12/01 07:04:20;;;;;;;;;;;1.60;99.90;;;;;;7332930;19;111176;-85
2023/12/01 07:06:47;;;;;;;;;;;1.60;99.90;;;;;;7343223;19;109607;-85
2023/12/01 07:09:17;;;;;;;;;;;1.60;99.90;;;;;;7333407;19;110527;-85
2023/12/01 07:11:45;;;;;;;;;;;1.60;99.90;;;;;;7338157;19;108782;-85
2023/12/01 07:14:13;;;;;;;;;;;1.60;99.90;;;;;;7332057;19;109468;-85
2023/12/01 07:16:43;;;;;;;;;;;1.60;99.90;;;;;;7335708;19;110208;-85
2023/12/01 07:19:10;;;;;;;;;;;1.60;99.90;;;;;;7335044;19;108933;-85
2023/12/01 07:21:38;;;;;;;;;;;1.60;99.90;;;;;;7336115;19;112428;-86
2023/12/01 07:24:07;;;;;;;;;;;1.60;99.90;;;;;;7327700;19;110219;-87
2023/12/01 07:26:34;;;;;;;;;;;1.70;99.90;;;;;;7340857;19;109133;-86
2023/12/01 07:29:04;;;;;;;;;;;1.70;99.90;;;;;;7338002;19;109122;-86
2023/12/01 07:31:33;;;;;;;;;;;1.60;99.90;;;;;;7329346;19;108893;-86
2023/12/01 07:34:01;;;;;;;;;;;1.60;99.90;;;;;;7337879;19;108886;-85
2023/12/01 07:36:29;;;;;;;;;;;1.60;99.90;;;;;;7332324;19;110560;-85
2023/12/01 07:39:09;;;;;;;;;;;1.50;99.90;;;;;;7335532;19;108921;-85
2023/12/01 07:41:36;;;;;;;;;;;1.50;99.90;;;;;;7331992;19;108738;-85
2023/12/01 07:44:03;;;;;;;;;;;1.50;99.90;;;;;;7327316;19;110266;-87
2023/12/01 07:46:32;;;;;;;;;;;1.50;99.90;;;;;;7325107;19;109085;-86
2023/12/01 07:48:59;;;;;;;;;;;1.50;99.90;;;;;;7338830;19;109054;-85
2023/12/01 07:51:35;;;;;;;;;;;1.50;99.90;;;;;;7334935;19;109250;-85
2023/12/01 07:54:02;;;;;;;;;;;1.50;99.90;;;;;;7329620;19;109990;-84
2023/12/01 07:56:30;;;;;;;;;;;1.50;99.90;;;;;;7332772;19;109388;-86
2023/12/01 07:58:57;;;;;;;;;;;1.50;99.90;;;;;;7336654;19;108307;-86
2023/12/01 08:01:24;;;;;;;;;;;1.60;99.90;;;;;;7333593;19;109078;-85
2023/12/01 08:03:52;;;;;;;;;;;1.50;99.90;;;;;;7332953;19;109785;-85
2023/12/01 08:06:19;;;;;;;;;;;1.50;99.90;;;;;;7332650;19;109614;-85
2023/12/01 08:08:47;;;;;;;;;;;1.50;99.90;;;;;;7334979;19;109769;-85
2023/12/01 08:11:16;;;;;;;;;;;1.50;99.90;;;;;;7337923;19;110716;-85
2023/12/01 08:13:43;;;;;;;;;;;1.50;99.90;;;;;;7334975;19;109451;-83
2023/12/01 08:16:10;;;;;;;;;;;1.50;99.90;;;;;;7333920;19;110052;-85
2023/12/01 08:18:38;;;;;;;;;;;1.40;99.90;;;;;;7332288;19;111317;-83
2023/12/01 08:21:06;;;;;;;;;;;1.40;99.90;;;;;;7334272;19;109244;-85
2023/12/01 08:23:33;;;;;;;;;;;1.30;99.90;;;;;;7330312;19;110129;-85
2023/12/01 08:26:00;;;;;;;;;;;1.30;99.90;;;;;;7332973;19;108752;-84
2023/12/01 08:28:27;;;;;;;;;;;1.30;99.90;;;;;;7337522;19;109178;-85
2023/12/01 08:30:54;;;;;;;;;;;1.40;99.90;;;;;;7334604;19;110858;-87
2023/12/01 08:33:25;;;;;;;;;;;1.40;99.90;;;;;;7338232;19;109238;-86
2023/12/01 08:35:52;;;;;;;;;;;1.40;99.90;;;;;;7333700;19;110154;-86
2023/12/01 08:38:19;;;;;;;;;;;1.50;99.90;;;;;;7328530;19;109480;-86
2023/12/01 08:40:48;;;;;;;;;;;1.60;99.90;;;;;;7333697;19;109803;-86
2023/12/01 08:43:20;;;;;;;;;;;1.70;99.90;;;;;;7324002;19;110323;-87
2023/12/01 08:45:47;;;;;;;;;;;1.80;99.90;;;;;;7336624;19;108628;-86
2023/12/01 08:48:14;;;;;;;;;;;1.80;99.90;;;;;;7334213;19;109439;-87
2023/12/01 08:50:42;;;;;;;;;;;1.90;99.90;;;;;;7334261;19;110668;-86
2023/12/01 08:53:09;;;;;;;;;;;2.00;99.90;;;;;;7333880;19;109075;-86
2023/12/01 08:55:36;;;;;;;;;;;2.00;99.90;;;;;;7338346;19;109483;-86
2023/12/01 08:58:03;;;;;;;;;;;2.00;99.90;;;;;;7331017;19;110258;-86
2023/12/01 09:00:30;;;;;;;;;;;1.90;99.90;;;;;;7332378;19;109015;-86
2023/12/01 09:02:58;;;;;;;;;;;2.00;99.90;;;;;;7335884;19;110412;-86
2023/12/01 09:05:25;;;;;;;;;;;1.90;99.90;;;;;;7333813;19;108879;-85
2023/12/01 09:07:52;;;;;;;;;;;1.90;99.90;;;;;;7343440;19;108935;-86
2023/12/01 09:10:22;;;;;;;;;;;1.90;99.90;;;;;;7338967;19;109269;-86
2023/12/01 09:12:50;;;;;;;;;;;2.00;99.90;;;;;;7344322;19;108608;-87
2023/12/01 09:15:17;;;;;;;;;;;2.00;99.90;;;;;;7339931;19;108748;-86
2023/12/01 09:17:45;;;;;;;;;;;2.10;99.90;;;;;;7343580;19;109234;-87
2023/12/01 09:20:12;;;;;;;;;;;2.20;99.90;;;;;;7339353;19;109093;-86
2023/12/01 09:22:39;;;;;;;;;;;2.20;99.90;;;;;;7345257;19;109196;-86
2023/12/01 09:25:07;;;;;;;;;;;2.10;99.90;;;;;;7336200;19;109429;-86
2023/12/01 09:27:35;;;;;;;;;;;2.10;99.90;;;;;;7329202;19;108368;-87
2023/12/01 09:30:07;;;;;;;;;;;2.00;99.90;;;;;;7337003;19;112324;-87
2023/12/01 09:32:34;;;;;;;;;;;1.90;99.90;;;;;;7357502;19;109073;-87
2023/12/01 09:35:02;;;;;;;;;;;1.90;99.90;;;;;;7380588;19;108581;-87
2023/12/01 09:37:29;;;;;;;;;;;1.90;99.90;;;;;;7383648;19;109611;-86
2023/12/01 09:39:57;;;;;;;;;;;1.90;99.90;;;;;;7377987;19;110005;-86
2023/12/01 09:42:24;;;;;;;;;;;1.90;99.90;;;;;;7378120;19;109472;-86
2023/12/01 09:44:53;;;;;;;;;;;1.80;99.90;;;;;;7358310;19;108635;-86
2023/12/01 09:47:24;;;;;;;;;;;1.80;99.90;;;;;;7345643;19;108785;-87
2023/12/01 09:49:52;;;;;;;;;;;1.80;99.90;;;;;;7342460;19;110250;-86
2023/12/01 09:52:19;;;;;;;;;;;1.70;99.90;;;;;;7339719;19;108919;-86
2023/12/01 09:54:46;;;;;;;;;;;1.70;99.90;;;;;;7343492;19;108848;-86
2023/12/01 09:57:33;;;;;;;;;;;1.80;99.90;;;;;;7340785;19;112309;-87
2023/12/01 10:00:03;;;;;;;;;;;1.90;99.90;;;;;;7342305;19;108682;-86
2023/12/01 10:02:30;;;;;;;;;;;2.00;99.90;;;;;;7334553;19;109644;-86
2023/12/01 10:05:06;;;;;;;;;;;2.00;99.90;;;;;;7338041;19;109170;-85
2023/12/01 10:07:34;;;;;;;;;;;2.10;99.90;;;;;;7331750;19;111162;-87
2023/12/01 10:10:17;;;;;;;;;;;2.20;99.90;;;;;;7339136;19;110643;-87
2023/12/01 10:12:58;;;;;;;;;;;2.20;99.90;;;;;;7335456;19;108616;-86
2023/12/01 10:15:27;;;;;;;;;;;2.30;99.90;;;;;;7338701;19;112297;-86
2023/12/01 10:18:06;;;;;;;;;;;2.40;99.90;;;;;;7334412;19;110791;-87
2023/12/01 10:20:35;;;;;;;;;;;2.40;99.90;;;;;;7338710;19;109147;-86
2023/12/01 10:23:23;;;;;;;;;;;2.30;99.90;;;;;;7339815;19;112379;-86
2023/12/01 10:25:51;;;;;;;;;;;2.20;99.90;;;;;;7332950;19;109068;-86
2023/12/01 10:28:19;;;;;;;;;;;2.20;99.90;;;;;;7335206;19;109104;-87
2023/12/01 10:30:51;;;;;;;;;;;2.20;99.90;;;;;;7333720;19;108781;-65
2023/12/01 10:33:20;;;;;;;;;;;2.30;99.90;;;;;;7336449;19;109301;-66
2023/12/01 10:36:01;;;;;;;;;;;2.30;99.90;;;;;;7335349;19;108715;-66
2023/12/01 10:38:29;;;;;;;;;;;2.20;99.90;;;;;;7336041;19;111214;-65
2023/12/01 10:40:57;;;;;;;;;;;2.20;99.90;;;;;;7336436;19;108934;-65
2023/12/01 10:43:26;;;;;;;;;;;2.30;99.90;;;;;;7335036;19;108644;-67
2023/12/01 10:45:53;;;;;;;;;;;2.30;99.90;;;;;;7340928;19;111097;-65
2023/12/01 10:48:24;;;;;;;;;;;2.40;99.90;;;;;;7334192;19;109036;-65
2023/12/01 10:50:52;;;;;;;;;;;2.40;99.90;;;;;;7334928;19;110622;-65
2023/12/01 10:53:22;;;;;;;;;;;2.40;99.90;;;;;;7333097;19;109360;-65
2023/12/01 10:55:49;;;;;;;;;;;2.50;99.90;;;;;;7332700;19;108900;-65
2023/12/01 10:58:21;;;;;;;;;;;2.50;99.90;;;;;;7336042;19;109141;-65
2023/12/01 11:00:49;;;;;;;;;;;2.60;99.90;;;;;;7337128;19;111432;-65
2023/12/01 11:03:20;;;;;;;;;;;2.50;99.90;;;;;;7333980;19;110375;-65
2023/12/01 11:05:49;;;;;;;;;;;2.60;99.90;;;;;;7333186;19;109407;-65
2023/12/01 11:08:32;;;;;;;;;;;2.60;99.90;;;;;;7338434;19;108949;-65
2023/12/01 11:11:18;;;;;;;;;;;2.60;99.90;;;;;;7335570;19;109172;-65
2023/12/01 11:13:45;;;;;;;;;;;2.60;99.90;;;;;;7333651;19;108558;-65
2023/12/01 11:16:13;;;;;;;;;;;2.70;99.90;;;;;;7336805;19;109240;-66
2023/12/01 11:18:44;;;;;;;;;;;2.60;99.90;;;;;;7331057;19;108926;-66
2023/12/01 11:21:11;;;;;;;;;;;2.60;99.90;;;;;;7334624;19;108659;-68
2023/12/01 11:23:38;;;;;;;;;;;2.50;99.90;;;;;;7334960;19;108526;-65
2023/12/01 11:26:06;;;;;;;;;;;2.50;99.90;;;;;;7333334;19;110027;-65
2023/12/01 11:28:55;;;;;;;;;;;2.40;99.90;;;;;;7331840;19;108530;-65
2023/12/01 11:34:00;;;;;;;;;;;2.30;99.90;;;;;;7333513;19;108574;-65
2023/12/01 11:36:31;;;;;;;;;;;2.30;99.90;;;;;;7329790;19;110699;-65
2023/12/01 11:39:16;;;;;;;;;;;2.30;99.90;;;;;;7335245;19;110202;-64
2023/12/01 11:41:49;;;;;;;;;;;2.40;99.90;;;;;;7335676;19;108680;-65
2023/12/01 11:44:25;;;;;;;;;;;2.40;99.90;;;;;;7335287;19;109261;-65
2023/12/01 11:46:56;;;;;;;;;;;2.40;99.90;;;;;;7333295;19;110216;-64
2023/12/01 11:49:30;;;;;;;;;;;2.40;99.90;;;;;;7334771;19;108928;-65
2023/12/01 11:51:59;;;;;;;;;;;2.40;99.90;;;;;;7340909;19;110353;-64
2023/12/01 11:54:26;;;;;;;;;;;2.50;99.90;;;;;;7335397;19;108887;-65
2023/12/01 11:56:57;;;;;;;;;;;2.50;99.90;;;;;;7333094;19;109534;-65
2023/12/01 11:59:24;;;;;;;;;;;2.60;99.90;;;;;;7332261;19;110586;-64
2023/12/01 12:01:52;;;;;;;;;;;2.60;99.90;;;;;;7332971;19;110878;-65
2023/12/01 12:04:20;;;;;;;;;;;2.60;99.90;;;;;;7332427;19;108781;-65
2023/12/01 12:06:47;;;;;;;;;;;2.60;99.90;;;;;;7334670;19;109610;-65
2023/12/01 12:09:17;;;;;;;;;;;2.60;99.90;;;;;;7329593;19;108909;-65
2023/12/01 12:11:46;;;;;;;;;;;2.60;99.90;;;;;;7331832;19;108949;-65
2023/12/01 12:14:13;;;;;;;;;;;2.60;99.90;;;;;;7339035;19;109477;-68
2023/12/01 12:16:41;;;;;;;;;;;2.60;99.90;;;;;;7332617;19;108676;-65
2023/12/01 12:19:09;;;;;;;;;;;2.60;99.90;;;;;;7332961;19;109534;-64
2023/12/01 12:21:37;;;;;;;;;;;2.60;99.90;;;;;;7331084;19;108686;-65
2023/12/01 12:24:05;;;;;;;;;;;2.60;99.90;;;;;;7329128;19;108439;-65
2023/12/01 12:26:32;;;;;;;;;;;2.60;99.90;;;;;;7328008;19;113056;-71
2023/12/01 12:29:01;;;;;;;;;;;2.80;99.90;;;;;;7330407;19;109938;-73
2023/12/01 12:31:38;;;;;;;;;;;3.20;99.90;;;;;;7331183;19;109969;-68
2023/12/01 12:34:09;;;;;;;;;;;3.40;99.90;;;;;;7328901;19;108199;-68
2023/12/01 12:36:40;;;;;;;;;;;3.60;99.90;;;;;;7332720;19;109397;-68
2023/12/01 12:39:17;;;;;;;;;;;3.70;99.90;;;;;;7326866;19;110348;-67
2023/12/01 12:41:59;;;;;;;;;;;3.80;99.90;;;;;;7329755;19;108607;-68
2023/12/01 12:44:29;;;;;;;;;;;3.90;99.90;;;;;;7331130;19;109631;-69
2023/12/01 12:47:00;;;;;;;;;;;3.80;99.90;;;;;;7332619;19;109650;-69
2023/12/01 12:49:34;;;;;;;;;;;3.90;99.90;;;;;;7332379;19;113092;-69
2023/12/01 12:52:02;;;;;;;;;;;4.00;99.90;;;;;;7332451;19;109227;-69
2023/12/01 12:54:30;;;;;;;;;;;4.00;99.90;;;;;;7327056;19;110808;-69
2023/12/01 12:56:58;;;;;;;;;;;3.90;99.90;;;;;;7329433;19;113489;-69
2023/12/01 12:59:25;;;;;;;;;;;3.80;99.90;;;;;;7333847;19;109360;-69
2023/12/01 13:01:52;;;;;;;;;;;3.70;99.90;;;;;;7332471;19;109048;-69
2023/12/01 13:04:20;;;;;;;;;;;3.60;99.90;;;;;;7331616;19;108461;-69
2023/12/01 13:06:47;;;;;;;;;;;3.50;99.90;;;;;;7329032;19;111112;-68
2023/12/01 13:09:16;;;;;;;;;;;3.60;99.90;;;;;;7329419;19;109446;-68
2023/12/01 13:11:45;;;;;;;;;;;3.50;99.90;;;;;;7330631;19;109426;-69
2023/12/01 13:14:13;;;;;;;;;;;3.50;99.90;;;;;;7330108;19;111502;-68
2023/12/01 13:16:41;;;;;;;;;;;3.60;99.90;;;;;;7331535;19;108703;-69
2023/12/01 13:19:21;;;;;;;;;;;3.60;99.90;;;;;;7330567;19;108730;-69
2023/12/01 13:21:49;;;;;;;;;;;3.50;99.90;;;;;;7336362;19;109166;-68
2023/12/01 13:24:21;;;;;;;;;;;3.60;99.90;;;;;;7332435;19;108699;-69
2023/12/01 13:26:49;;;;;;;;;;;3.50;99.90;;;;;;7332062;19;109353;-69
2023/12/01 13:29:17;;;;;;;;;;;3.60;99.90;;;;;;7330782;19;108995;-68
2023/12/01 13:31:45;;;;;;;;;;;3.60;99.90;;;;;;7327848;19;108971;-68
2023/12/01 13:34:12;;;;;;;;;;;3.60;99.90;;;;;;7328899;19;109170;-68
2023/12/01 13:36:39;;;;;;;;;;;3.40;99.90;;;;;;7325782;19;109808;-68
2023/12/01 13:39:06;;;;;;;;;;;3.30;99.90;;;;;;7326722;19;109212;-68
2023/12/01 13:44:06;;;;;;;;;;;3.30;99.90;;;;;;7337135;19;108741;-69
2023/12/01 13:46:33;;;;;;;;;;;3.30;99.90;;;;;;7328833;19;110316;-68
2023/12/01 13:49:00;;;;;;;;;;;3.20;99.90;;;;;;7329675;19;108562;-68
2023/12/01 13:51:27;;;;;;;;;;;3.20;99.90;;;;;;7325672;19;109088;-69
2023/12/01 13:53:55;;;;;;;;;;;3.20;99.90;;;;;;7335367;19;111825;-68
2023/12/01 13:56:22;;;;;;;;;;;3.20;99.90;;;;;;7330761;19;109742;-68
2023/12/01 13:58:49;;;;;;;;;;;3.20;99.90;;;;;;7334345;19;108696;-69
2023/12/01 14:01:16;;;;;;;;;;;3.10;99.90;;;;;;7337826;19;109128;-68
2023/12/01 14:03:43;;;;;;;;;;;3.10;99.90;;;;;;7340661;19;109501;-69
2023/12/01 14:06:11;;;;;;;;;;;3.10;99.90;;;;;;7335991;19;110525;-68
2023/12/01 14:08:38;;;;;;;;;;;3.00;99.90;;;;;;7334096;19;108800;-68
2023/12/01 14:11:05;;;;;;;;;;;3.00;99.90;;;;;;7335999;19;109211;-70
2023/12/01 14:13:32;;;;;;;;;;;3.00;99.90;;;;;;7334463;19;110399;-69
2023/12/01 14:16:00;;;;;;;;;;;3.00;99.90;;;;;;7339136;19;109611;-68
2023/12/01 14:18:32;;;;;;;;;;;3.00;99.90;;;;;;7336325;19;109572;-68
2023/12/01 14:20:59;;;;;;;;;;;3.00;99.90;;;;;;7337009;19;109153;-69
2023/12/01 14:23:27;;;;;;;;;;;3.00;99.90;;;;;;7336165;19;109913;-68
2023/12/01 14:25:54;;;;;;;;;;;2.90;99.90;;;;;;7342047;19;109864;-68
2023/12/01 14:28:22;;;;;;;;;;;2.90;99.90;;;;;;7333873;19;108821;-68
2023/12/01 14:30:49;;;;;;;;;;;2.90;99.90;;;;;;7335882;19;109303;-68